createdAt,value
2022-09-15T00:01:20.466Z,12.11
2022-09-15T00:03:48.828Z,12.12
2022-09-15T00:06:17.624Z,12.14
2022-09-15T00:08:46.043Z,12.10
2022-09-15T00:11:18.645Z,12.24
2022-09-15T00:13:47.329Z,12.22
2022-09-15T00:16:17.037Z,12.03
2022-09-15T00:18:46.235Z,12.00
2022-09-15T00:21:17.422Z,11.95
2022-09-15T00:23:46.036Z,12.01
2022-09-15T00:26:17.948Z,11.96
2022-09-15T00:28:46.167Z,11.89
2022-09-15T00:31:18.088Z,11.94
2022-09-15T00:33:48.368Z,11.88
2022-09-15T00:36:16.883Z,11.72
2022-09-15T00:38:45.069Z,11.79
2022-09-15T00:41:17.576Z,11.82
2022-09-15T00:43:53.687Z,11.74
2022-09-15T00:46:25.316Z,11.74
2022-09-15T00:49:01.051Z,11.80
2022-09-15T00:51:36.947Z,11.59
2022-09-15T00:54:17.132Z,11.51
2022-09-15T00:56:50.518Z,11.60
2022-09-15T00:59:22.081Z,11.65
2022-09-15T01:01:56.385Z,11.54
2022-09-15T01:04:25.081Z,11.48
2022-09-15T01:07:01.280Z,11.51
2022-09-15T01:09:37.242Z,11.67
2022-09-15T01:12:07.230Z,11.62
2022-09-15T01:14:35.590Z,11.49
2022-09-15T01:17:12.256Z,11.42
2022-09-15T01:20:19.203Z,11.39
2022-09-15T01:23:05.663Z,11.27
2022-09-15T01:25:51.546Z,11.19
2022-09-15T01:28:49.538Z,11.20
2022-09-15T01:31:25.758Z,11.31
2022-09-15T01:33:59.149Z,11.23
2022-09-15T01:36:36.111Z,11.21
2022-09-15T01:39:13.801Z,11.21
2022-09-15T01:41:46.344Z,11.16
2022-09-15T01:44:19.486Z,11.26
2022-09-15T01:46:53.511Z,11.16
2022-09-15T01:49:26.505Z,11.07
2022-09-15T01:51:55.709Z,10.84
2022-09-15T01:54:29.193Z,10.82
2022-09-15T01:56:58.264Z,10.91
2022-09-15T01:59:26.568Z,10.86
2022-09-15T02:02:01.183Z,10.93
2022-09-15T02:04:33.114Z,10.91
2022-09-15T02:07:07.382Z,10.75
2022-09-15T02:09:39.646Z,10.75
2022-09-15T02:12:14.144Z,10.68
2022-09-15T02:14:49.117Z,10.71
2022-09-15T02:17:21.787Z,10.81
2022-09-15T02:19:52.062Z,10.85
2022-09-15T02:22:26.215Z,10.77
2022-09-15T02:24:59.218Z,10.75
2022-09-15T02:27:31.034Z,10.89
2022-09-15T02:30:06.009Z,10.93
2022-09-15T02:32:37.810Z,10.86
2022-09-15T02:35:09.719Z,10.94
2022-09-15T02:37:38.829Z,11.01
2022-09-15T02:40:08.133Z,10.91
2022-09-15T02:42:37.248Z,10.91
2022-09-15T02:45:06.213Z,10.84
2022-09-15T02:47:35.735Z,10.87
2022-09-15T02:50:04.106Z,10.85
2022-09-15T02:52:32.486Z,10.75
2022-09-15T02:55:00.845Z,10.71
2022-09-15T02:57:29.035Z,10.76
2022-09-15T03:00:17.281Z,10.66
2022-09-15T03:02:49.920Z,10.63
2022-09-15T03:05:20.656Z,10.67
2022-09-15T03:07:49.048Z,10.79
2022-09-15T03:10:17.230Z,10.75
2022-09-15T03:12:46.950Z,10.63
2022-09-15T03:15:17.582Z,10.70
2022-09-15T03:17:48.203Z,10.63
2022-09-15T03:20:18.411Z,10.63
2022-09-15T03:22:46.558Z,10.60
2022-09-15T03:25:14.961Z,10.62
2022-09-15T03:27:43.628Z,10.50
2022-09-15T03:30:13.187Z,10.38
2022-09-15T03:32:42.103Z,10.24
2022-09-15T03:35:11.848Z,10.33
2022-09-15T03:37:40.041Z,10.33
2022-09-15T03:40:10.428Z,10.33
2022-09-15T03:42:38.923Z,10.38
2022-09-15T03:45:08.107Z,10.37
2022-09-15T03:47:36.254Z,10.38
2022-09-15T03:50:04.942Z,10.52
2022-09-15T03:52:34.855Z,10.63
2022-09-15T03:55:03.005Z,10.54
2022-09-15T03:57:31.487Z,10.54
2022-09-15T03:59:59.957Z,10.58
2022-09-15T04:02:28.175Z,10.53
2022-09-15T04:04:56.500Z,10.58
2022-09-15T04:07:24.699Z,10.57
2022-09-15T04:09:54.401Z,10.41
2022-09-15T04:12:22.602Z,10.43
2022-09-15T04:14:50.782Z,10.36
2022-09-15T04:17:18.990Z,10.35
2022-09-15T04:19:47.375Z,10.45
2022-09-15T04:22:17.894Z,10.42
2022-09-15T04:24:48.050Z,10.55
2022-09-15T04:27:18.390Z,10.53
2022-09-15T04:29:46.516Z,10.69
2022-09-15T04:32:14.674Z,10.70
2022-09-15T04:34:42.832Z,10.69
2022-09-15T04:37:11.849Z,10.71
2022-09-15T04:39:40.202Z,10.68
2022-09-15T04:42:08.434Z,10.62
2022-09-15T04:44:38.134Z,10.56
2022-09-15T04:47:07.209Z,10.48
2022-09-15T04:49:35.565Z,10.57
2022-09-15T04:52:06.665Z,10.56
2022-09-15T04:54:37.682Z,10.53
2022-09-15T04:57:06.005Z,10.51
2022-09-15T04:59:34.199Z,10.59
2022-09-15T05:02:04.318Z,10.68
2022-09-15T05:04:32.756Z,10.68
2022-09-15T05:07:00.991Z,10.70
2022-09-15T05:09:30.882Z,10.74
2022-09-15T05:11:59.356Z,10.83
2022-09-15T05:14:27.481Z,11.03
2022-09-15T05:16:55.711Z,11.14
2022-09-15T05:19:25.191Z,11.20
2022-09-15T05:21:53.339Z,11.28
2022-09-15T05:24:21.615Z,11.56
2022-09-15T05:26:49.759Z,11.66
2022-09-15T05:29:17.943Z,11.78
2022-09-15T05:31:46.354Z,11.95
2022-09-15T05:34:15.337Z,11.83
2022-09-15T05:36:45.622Z,11.78
2022-09-15T05:39:13.782Z,11.76
2022-09-15T05:41:42.134Z,11.76
2022-09-15T05:44:11.136Z,11.67
2022-09-15T05:46:39.564Z,11.60
2022-09-15T05:49:08.758Z,11.72
2022-09-15T05:51:37.787Z,11.68
2022-09-15T05:54:07.921Z,11.68
2022-09-15T05:56:36.256Z,11.85
2022-09-15T05:59:04.727Z,11.94
2022-09-15T06:01:33.287Z,12.27
2022-09-15T06:04:01.642Z,12.37
2022-09-15T06:06:32.756Z,12.48
2022-09-15T06:09:01.750Z,12.69
2022-09-15T06:11:33.723Z,12.61
2022-09-15T06:14:03.104Z,12.78
2022-09-15T06:16:33.859Z,12.80
2022-09-15T06:19:02.148Z,13.11
2022-09-15T06:21:31.314Z,13.24
2022-09-15T06:24:00.974Z,13.48
2022-09-15T06:26:30.887Z,13.68
2022-09-15T06:29:01.421Z,13.38
2022-09-15T06:31:31.799Z,13.65
2022-09-15T06:34:00.709Z,13.52
2022-09-15T06:36:30.875Z,13.49
2022-09-15T06:38:59.711Z,13.69
2022-09-15T06:41:38.257Z,13.72
2022-09-15T06:44:21.037Z,13.76
2022-09-15T06:46:49.679Z,13.72
2022-09-15T06:49:18.184Z,13.97
2022-09-15T06:51:46.433Z,14.06
2022-09-15T06:54:16.038Z,13.84
2022-09-15T06:56:44.512Z,14.14
2022-09-15T06:59:13.507Z,14.22
2022-09-15T07:01:43.574Z,14.23
2022-09-15T07:04:11.928Z,14.43
2022-09-15T07:06:40.745Z,14.35
2022-09-15T07:09:09.325Z,14.41
2022-09-15T07:11:37.568Z,14.47
2022-09-15T07:14:06.041Z,14.54
2022-09-15T07:16:34.370Z,14.51
2022-09-15T07:19:05.804Z,14.53
2022-09-15T07:21:35.217Z,14.62
2022-09-15T07:24:07.008Z,14.98
2022-09-15T07:26:35.960Z,15.32
2022-09-15T07:29:06.706Z,15.60
2022-09-15T07:31:36.419Z,15.64
2022-09-15T07:34:06.842Z,15.76
2022-09-15T07:36:35.387Z,15.69
2022-09-15T07:39:05.563Z,15.66
2022-09-15T07:41:34.469Z,15.68
2022-09-15T07:44:03.083Z,15.82
2022-09-15T07:46:32.949Z,15.76
2022-09-15T07:49:03.375Z,15.76
2022-09-15T07:51:33.142Z,15.83
2022-09-15T07:54:01.760Z,15.93
2022-09-15T07:56:29.880Z,15.55
2022-09-15T07:58:58.162Z,15.62
2022-09-15T08:01:26.762Z,15.39
2022-09-15T08:03:54.932Z,15.28
2022-09-15T08:06:25.344Z,15.39
2022-09-15T08:09:00.485Z,15.64
2022-09-15T08:11:30.246Z,16.00
2022-09-15T08:14:02.287Z,16.07
2022-09-15T08:16:30.536Z,16.01
2022-09-15T08:18:59.083Z,16.18
2022-09-15T08:21:28.315Z,16.27
2022-09-15T08:23:59.291Z,16.23
2022-09-15T08:26:28.994Z,16.17
2022-09-15T08:28:57.924Z,15.86
2022-09-15T08:31:26.585Z,15.80
2022-09-15T08:33:56.368Z,16.13
2022-09-15T08:36:27.614Z,16.30
2022-09-15T08:38:56.648Z,16.16
2022-09-15T08:41:30.506Z,16.27
2022-09-15T08:44:08.410Z,16.70
2022-09-15T08:46:41.895Z,17.05
2022-09-15T08:49:26.839Z,16.74
2022-09-15T08:52:08.931Z,16.85
2022-09-15T08:54:37.070Z,17.14
2022-09-15T08:57:11.402Z,16.99
2022-09-15T08:59:39.970Z,16.80
2022-09-15T09:02:44.218Z,16.80
2022-09-15T09:05:29.407Z,16.71
2022-09-15T09:08:15.310Z,16.97
2022-09-15T09:10:52.294Z,16.94
2022-09-15T09:13:37.980Z,16.90
2022-09-15T09:16:26.379Z,17.02
2022-09-15T09:19:09.114Z,17.02
2022-09-15T09:21:40.118Z,16.96
2022-09-15T09:24:16.988Z,17.21
2022-09-15T09:26:51.086Z,17.28
2022-09-15T09:29:26.748Z,17.54
2022-09-15T09:31:57.888Z,17.62
2022-09-15T09:34:33.447Z,17.78
2022-09-15T09:37:10.191Z,17.51
2022-09-15T09:39:38.682Z,17.47
2022-09-15T09:42:08.993Z,17.43
2022-09-15T09:44:39.531Z,17.16
2022-09-15T09:47:08.289Z,16.97
2022-09-15T09:49:41.220Z,17.43
2022-09-15T09:52:09.429Z,17.58
2022-09-15T09:54:37.607Z,17.86
2022-09-15T09:57:30.948Z,17.61
2022-09-15T10:00:00.423Z,17.74
2022-09-15T10:02:29.442Z,17.66
2022-09-15T10:05:19.046Z,17.62
2022-09-15T10:07:47.676Z,17.54
2022-09-15T10:10:21.594Z,17.27
2022-09-15T10:12:50.682Z,17.30
2022-09-15T10:15:25.102Z,17.39
2022-09-15T10:17:56.426Z,17.17
2022-09-15T10:20:32.371Z,17.22
2022-09-15T10:23:06.755Z,17.28
2022-09-15T10:25:58.623Z,17.22
2022-09-15T10:28:27.983Z,17.61
2022-09-15T10:31:04.777Z,17.51
2022-09-15T10:33:34.982Z,17.80
2022-09-15T10:36:06.859Z,18.00
2022-09-15T10:38:41.295Z,17.93
2022-09-15T10:41:22.020Z,17.81
2022-09-15T10:44:05.040Z,18.14
2022-09-15T10:46:46.983Z,17.98
2022-09-15T10:49:30.064Z,18.34
2022-09-15T10:52:24.088Z,18.50
2022-09-15T10:55:04.768Z,18.48
2022-09-15T10:57:49.086Z,18.00
2022-09-15T11:00:22.486Z,17.62
2022-09-15T11:03:18.639Z,17.81
2022-09-15T11:05:56.881Z,17.96
2022-09-15T11:08:47.410Z,18.55
2022-09-15T11:11:24.335Z,18.24
2022-09-15T11:14:07.294Z,18.25
2022-09-15T11:16:50.286Z,17.93
2022-09-15T11:19:34.876Z,17.67
2022-09-15T11:22:05.471Z,17.87
2022-09-15T11:24:43.754Z,17.81
2022-09-15T11:27:20.007Z,17.66
2022-09-15T11:30:05.272Z,17.62
2022-09-15T11:32:42.515Z,18.07
2022-09-15T11:35:37.612Z,18.79
2022-09-15T11:38:34.305Z,18.72
2022-09-15T11:41:18.836Z,19.50
2022-09-15T11:43:58.059Z,19.44
2022-09-15T11:46:32.334Z,19.22
2022-09-15T11:49:08.027Z,19.47
2022-09-15T11:51:42.189Z,19.62
2022-09-15T11:54:16.730Z,19.24
2022-09-15T11:56:47.447Z,19.35
2022-09-15T11:59:25.892Z,18.69
2022-09-15T12:02:02.834Z,18.85
2022-09-15T12:04:36.371Z,18.69
2022-09-15T12:07:14.539Z,19.07
2022-09-15T12:09:43.311Z,18.97
2022-09-15T12:12:16.182Z,19.25
2022-09-15T12:14:46.680Z,19.06
2022-09-15T12:17:19.683Z,19.25
2022-09-15T12:20:00.037Z,18.91
2022-09-15T12:22:37.139Z,18.66
2022-09-15T12:25:13.386Z,18.41
2022-09-15T12:27:41.514Z,18.35
2022-09-15T12:30:39.909Z,18.06
2022-09-15T12:33:41.215Z,17.89
2022-09-15T12:36:38.055Z,17.69
2022-09-15T12:39:27.224Z,17.60
2022-09-15T12:41:57.875Z,17.74
2022-09-15T12:44:33.005Z,17.57
2022-09-15T12:47:04.143Z,17.43
2022-09-15T12:49:34.927Z,17.66
2022-09-15T12:52:07.917Z,17.72
2022-09-15T12:54:40.925Z,17.24
2022-09-15T12:57:22.665Z,17.34
2022-09-15T12:59:50.809Z,17.35
2022-09-15T13:02:43.823Z,17.19
2022-09-15T13:05:14.332Z,17.33
2022-09-15T13:07:57.535Z,17.15
2022-09-15T13:10:40.003Z,17.24
2022-09-15T13:13:32.675Z,17.25
2022-09-15T13:16:03.375Z,17.45
2022-09-15T13:18:33.514Z,17.50
2022-09-15T13:21:08.113Z,17.52
2022-09-15T13:23:41.746Z,17.50
2022-09-15T13:26:16.651Z,17.48
2022-09-15T13:28:45.608Z,17.51
2022-09-15T13:31:24.377Z,17.76
2022-09-15T13:40:51.185Z,18.20
2022-09-15T13:43:42.271Z,18.32
2022-09-15T13:46:22.988Z,18.72
2022-09-15T13:49:07.987Z,18.12
2022-09-15T13:51:38.964Z,17.82
2022-09-15T13:54:08.614Z,17.51
2022-09-15T13:56:41.539Z,17.56
2022-09-15T13:59:19.168Z,17.76
2022-09-15T14:01:47.762Z,17.63
2022-09-15T14:04:19.143Z,17.58
2022-09-15T14:06:51.002Z,17.58
2022-09-15T14:09:22.010Z,17.78
2022-09-15T14:11:53.875Z,17.89
2022-09-15T14:14:35.324Z,18.02
2022-09-15T14:17:04.179Z,18.19
2022-09-15T14:19:34.831Z,18.20
2022-09-15T14:22:03.736Z,18.28
2022-09-15T14:24:33.253Z,18.27
2022-09-15T14:27:08.631Z,18.06
2022-09-15T14:29:42.303Z,18.24
2022-09-15T14:32:14.327Z,17.99
2022-09-15T14:34:43.652Z,17.86
2022-09-15T14:37:23.863Z,17.67
2022-09-15T14:39:56.369Z,17.67
2022-09-15T14:42:30.513Z,17.78
2022-09-15T14:48:02.511Z,17.88
2022-09-15T14:50:33.088Z,17.74
2022-09-15T14:53:05.568Z,17.62
2022-09-15T14:56:08.238Z,17.34
2022-09-15T14:58:42.075Z,17.50
2022-09-15T15:01:17.883Z,17.75
2022-09-15T15:03:53.692Z,18.14
2022-09-15T15:06:29.405Z,18.06
2022-09-15T15:09:01.728Z,17.93
2022-09-15T15:11:31.738Z,17.89
2022-09-15T15:14:00.551Z,17.85
2022-09-15T15:16:32.408Z,17.75
2022-09-15T15:19:01.554Z,17.65
2022-09-15T15:21:38.961Z,17.49
2022-09-15T15:24:18.194Z,17.47
2022-09-15T15:26:47.880Z,17.37
2022-09-15T15:29:39.840Z,17.26
2022-09-15T15:32:13.283Z,17.12
2022-09-15T15:34:49.470Z,16.91
2022-09-15T15:37:26.223Z,16.92
2022-09-15T15:39:55.151Z,16.84
2022-09-15T15:42:24.937Z,16.97
2022-09-15T15:45:02.650Z,16.93
2022-09-15T15:47:34.120Z,16.90
2022-09-15T15:50:13.902Z,17.08
2022-09-15T15:52:43.911Z,16.97
2022-09-15T15:55:14.930Z,17.04
2022-09-15T15:57:43.856Z,16.82
2022-09-15T16:00:21.540Z,16.92
2022-09-15T16:02:52.477Z,16.89
2022-09-15T16:05:24.667Z,16.85
2022-09-15T16:07:53.649Z,16.83
2022-09-15T16:10:25.638Z,16.84
2022-09-15T16:12:53.931Z,16.65
2022-09-15T16:15:22.811Z,16.62
2022-09-15T16:17:52.286Z,16.43
2022-09-15T16:20:20.622Z,16.42
2022-09-15T16:22:49.098Z,16.11
2022-09-15T16:25:22.091Z,15.22
2022-09-15T16:27:50.472Z,14.56
2022-09-15T16:30:18.655Z,14.08
2022-09-15T16:32:46.791Z,13.84
2022-09-15T16:35:26.615Z,13.83
2022-09-15T16:37:55.455Z,13.73
2022-09-15T16:40:23.699Z,13.73
2022-09-15T16:42:51.943Z,13.85
2022-09-15T16:45:25.873Z,13.83
2022-09-15T16:47:53.985Z,13.90
2022-09-15T16:50:23.586Z,13.81
2022-09-15T16:52:52.962Z,13.82
2022-09-15T16:55:36.981Z,13.87
2022-09-15T16:58:06.373Z,13.80
2022-09-15T17:00:37.222Z,13.91
2022-09-15T17:03:06.566Z,13.93
2022-09-15T17:05:38.910Z,14.05
2022-09-15T17:08:09.253Z,13.92
2022-09-15T17:10:38.022Z,13.88
2022-09-15T17:13:07.124Z,13.94
2022-09-15T17:15:36.655Z,13.90
2022-09-15T17:18:05.500Z,13.95
2022-09-15T17:20:38.601Z,13.83
2022-09-15T17:23:19.483Z,13.77
2022-09-15T17:25:52.596Z,13.63
2022-09-15T17:28:22.587Z,13.67
2022-09-15T17:30:52.938Z,13.72
2022-09-15T17:33:21.546Z,13.64
2022-09-15T17:35:50.356Z,13.62
2022-09-15T17:38:21.689Z,13.66
2022-09-15T17:40:50.974Z,13.66
2022-09-15T17:43:20.691Z,13.68
2022-09-15T17:45:50.070Z,13.74
2022-09-15T17:48:18.868Z,13.82
2022-09-15T17:50:48.708Z,13.71
2022-09-15T17:53:18.358Z,13.80
2022-09-15T17:55:48.110Z,13.77
2022-09-15T17:58:16.898Z,13.78
2022-09-15T18:00:46.159Z,13.76
2022-09-15T18:03:21.976Z,13.92
2022-09-15T18:05:50.934Z,13.74
2022-09-15T18:08:19.090Z,13.84
2022-09-15T18:10:48.612Z,13.76
2022-09-15T18:13:19.705Z,13.86
2022-09-15T18:15:49.414Z,13.73
2022-09-15T18:18:19.829Z,13.72
2022-09-15T18:20:49.514Z,13.58
2022-09-15T18:23:20.274Z,13.54
2022-09-15T18:25:50.221Z,13.56
2022-09-15T18:28:19.493Z,13.64
2022-09-15T18:30:49.623Z,13.77
2022-09-15T18:33:19.797Z,13.89
2022-09-15T18:35:49.349Z,13.78
2022-09-15T18:38:18.862Z,13.82
2022-09-15T18:40:49.086Z,13.95
2022-09-15T18:43:18.639Z,14.02
2022-09-15T18:45:46.944Z,13.92
2022-09-15T18:48:15.210Z,13.90
2022-09-15T18:50:45.235Z,13.91
2022-09-15T18:53:14.322Z,14.03
2022-09-15T18:55:43.219Z,13.93
2022-09-15T18:58:11.835Z,13.92
2022-09-15T19:00:41.818Z,13.93
2022-09-15T19:03:10.339Z,13.84
2022-09-15T19:05:38.790Z,13.82
2022-09-15T19:08:08.445Z,13.85
2022-09-15T19:10:38.313Z,13.67
2022-09-15T19:13:06.680Z,13.58
2022-09-15T19:15:35.226Z,13.60
2022-09-15T19:18:05.033Z,13.56
2022-09-15T19:20:33.144Z,13.46
2022-09-15T19:23:01.274Z,13.32
2022-09-15T19:25:29.495Z,13.33
2022-09-15T19:27:57.976Z,13.45
2022-09-15T19:30:26.284Z,13.44
2022-09-15T19:32:54.822Z,13.31
2022-09-15T19:35:24.442Z,13.38
2022-09-15T19:37:52.625Z,13.34
2022-09-15T19:40:23.670Z,13.30
2022-09-15T19:42:51.979Z,13.37
2022-09-15T19:45:20.166Z,13.39
2022-09-15T19:47:48.367Z,13.29
2022-09-15T19:50:16.601Z,13.35
2022-09-15T19:52:46.203Z,13.34
2022-09-15T19:55:14.719Z,13.31
2022-09-15T19:57:43.639Z,13.11
2022-09-15T20:00:13.827Z,13.02
2022-09-15T20:02:42.324Z,12.95
2022-09-15T20:05:12.475Z,12.95
2022-09-15T20:07:40.709Z,12.92
2022-09-15T20:10:10.439Z,12.90
2022-09-15T20:12:38.559Z,12.87
2022-09-15T20:15:07.897Z,12.78
2022-09-15T20:17:41.583Z,12.73
2022-09-15T20:20:11.733Z,12.68
2022-09-15T20:22:39.907Z,12.68
2022-09-15T20:25:09.732Z,12.72
2022-09-15T20:27:38.227Z,12.63
2022-09-15T20:30:07.886Z,12.54
2022-09-15T20:32:36.050Z,12.38
2022-09-15T20:35:04.466Z,12.47
2022-09-15T20:37:37.479Z,12.41
2022-09-15T20:40:07.731Z,12.27
2022-09-15T20:42:37.746Z,12.13
2022-09-15T20:45:07.073Z,12.18
2022-09-15T20:47:35.216Z,12.07
2022-09-15T20:50:03.359Z,11.98
2022-09-15T20:52:37.368Z,11.99
2022-09-15T20:55:07.049Z,11.90
2022-09-15T20:57:35.290Z,11.98
2022-09-15T21:00:07.429Z,11.86
2022-09-15T21:02:35.727Z,12.06
2022-09-15T21:05:04.687Z,11.78
2022-09-15T21:07:32.934Z,11.84
2022-09-15T21:10:01.074Z,11.86
2022-09-15T21:12:29.435Z,11.97
2022-09-15T21:14:57.890Z,12.11
2022-09-15T21:17:28.959Z,12.02
2022-09-15T21:19:57.187Z,12.14
2022-09-15T21:22:25.939Z,12.15
2022-09-15T21:24:54.130Z,12.12
2022-09-15T21:27:29.988Z,12.08
2022-09-15T21:29:58.139Z,12.06
2022-09-15T21:32:28.191Z,12.17
2022-09-15T21:34:56.351Z,12.19
2022-09-15T21:37:26.941Z,12.09
2022-09-15T21:39:55.102Z,12.13
2022-09-15T21:42:23.361Z,11.94
2022-09-15T21:44:52.135Z,11.85
2022-09-15T21:47:20.282Z,11.84
2022-09-15T21:49:51.752Z,11.99
2022-09-15T21:52:19.898Z,11.92
2022-09-15T21:54:48.066Z,11.95
2022-09-15T21:57:16.181Z,12.02
2022-09-15T21:59:44.291Z,12.03
2022-09-15T22:02:12.565Z,12.05
2022-09-15T22:04:40.882Z,12.08
2022-09-15T22:07:11.466Z,12.14
2022-09-15T22:09:39.950Z,12.13
2022-09-15T22:12:08.525Z,12.10
2022-09-15T22:14:36.646Z,12.15
2022-09-15T22:17:04.782Z,12.15
2022-09-15T22:19:32.919Z,12.19
2022-09-15T22:22:01.163Z,12.07
2022-09-15T22:24:30.924Z,12.06
2022-09-15T22:26:59.387Z,12.18
2022-09-15T22:29:27.558Z,12.28
2022-09-15T22:31:55.721Z,12.28
2022-09-15T22:34:24.032Z,12.33
2022-09-15T22:36:52.174Z,12.25
2022-09-15T22:39:20.290Z,12.19
2022-09-15T22:41:50.069Z,12.19
2022-09-15T22:44:20.478Z,12.07
2022-09-15T22:46:49.718Z,12.26
2022-09-15T22:49:18.022Z,12.06
2022-09-15T22:51:46.499Z,11.96
2022-09-15T22:54:14.805Z,12.05
2022-09-15T22:56:42.941Z,12.06
2022-09-15T22:59:13.642Z,11.83
2022-09-15T23:01:41.818Z,11.77
2022-09-15T23:04:09.981Z,11.76
2022-09-15T23:06:38.134Z,11.79
2022-09-15T23:09:07.996Z,11.82
2022-09-15T23:11:39.678Z,11.69
2022-09-15T23:14:08.868Z,11.75
2022-09-15T23:16:38.385Z,11.60
2022-09-15T23:19:06.861Z,11.59
2022-09-15T23:21:35.047Z,11.58
2022-09-15T23:24:03.511Z,11.52
2022-09-15T23:26:32.047Z,11.63
2022-09-15T23:29:00.270Z,11.48
2022-09-15T23:31:28.468Z,11.62
2022-09-15T23:33:57.969Z,11.45
2022-09-15T23:36:26.171Z,11.55
2022-09-15T23:38:54.438Z,11.48
2022-09-15T23:41:22.652Z,11.40
2022-09-15T23:43:50.794Z,11.29
2022-09-15T23:46:18.984Z,11.31
2022-09-15T23:48:47.140Z,11.22
2022-09-15T23:51:16.592Z,11.35
2022-09-15T23:53:44.710Z,11.22
2022-09-15T23:56:13.038Z,11.26
2022-09-15T23:58:41.356Z,11.21
